Terminal Aerodrome Forecast
Issued by NWS

Home | Current Version | Previous Version | Text Only | Print | Product List | Glossary On
Versions: 1 2 3 4 5 6 7 8 9 10 11 12 13 14 15 16 17 18 19 20 21 22 23 24 25 26 27 28 29 30 31 32 33 34 35 36 37 38 39 40 41 42 43 44
000
FTAK31 PAFA 071201 AAA
TAFAOM
TAF AMD
PAOM 071201Z 0712/0812 07010KT 3SM -SN BKN010 OVC020
      TEMPO 0712/0716 1SM -SN BR OVC010
     FM072000 09010KT 5SM -SN BR BKN015 OVC030
     FM080300 09010KT P6SM SCT035 BKN080
     FM081000 08006KT P6SM SCT080=

USA.gov is the U.S. government's official web portal to all federal, state and local government web resources and services.